sensor_id;sensor_type;location;lat;lon;timestamp;P1;durP1;ratioP1;P2;durP2;ratioP2
69623;SDS011;56843;52.020;5.670;2022-08-04T00:00:56;6.35;;;2.67;;
69623;SDS011;56843;52.020;5.670;2022-08-04T00:03:18;5.43;;;2.00;;
69623;SDS011;56843;52.020;5.670;2022-08-04T00:04:43;8.18;;;2.58;;
69623;SDS011;56843;52.020;5.670;2022-08-04T00:08:06;10.88;;;2.28;;
69623;SDS011;56843;52.020;5.670;2022-08-04T00:09:51;6.13;;;2.05;;
69623;SDS011;56843;52.020;5.670;2022-08-04T00:11:28;6.45;;;2.85;;
69623;SDS011;56843;52.020;5.670;2022-08-04T00:13:01;12.50;;;2.93;;
69623;SDS011;56843;52.020;5.670;2022-08-04T00:14:33;7.23;;;2.80;;
69623;SDS011;56843;52.020;5.670;2022-08-04T00:16:08;7.43;;;2.47;;
69623;SDS011;56843;52.020;5.670;2022-08-04T00:17:40;9.50;;;2.67;;
69623;SDS011;56843;52.020;5.670;2022-08-04T00:19:19;8.63;;;2.90;;
69623;SDS011;56843;52.020;5.670;2022-08-04T00:20:53;7.88;;;2.88;;
69623;SDS011;56843;52.020;5.670;2022-08-04T00:22:30;10.57;;;2.72;;
69623;SDS011;56843;52.020;5.670;2022-08-04T00:24:01;11.43;;;2.38;;
69623;SDS011;56843;52.020;5.670;2022-08-04T00:25:31;7.43;;;2.47;;
69623;SDS011;56843;52.020;5.670;2022-08-04T00:27:02;10.63;;;2.97;;
69623;SDS011;56843;52.020;5.670;2022-08-04T00:28:33;8.27;;;2.70;;
69623;SDS011;56843;52.020;5.670;2022-08-04T00:30:06;7.05;;;2.65;;
69623;SDS011;56843;52.020;5.670;2022-08-04T00:31:38;10.20;;;3.00;;
69623;SDS011;56843;52.020;5.670;2022-08-04T00:33:16;9.00;;;3.00;;
69623;SDS011;56843;52.020;5.670;2022-08-04T00:34:48;10.18;;;2.40;;
69623;SDS011;56843;52.020;5.670;2022-08-04T00:36:19;9.27;;;2.83;;
69623;SDS011;56843;52.020;5.670;2022-08-04T00:37:50;7.20;;;2.55;;
69623;SDS011;56843;52.020;5.670;2022-08-04T00:39:22;6.97;;;2.38;;
69623;SDS011;56843;52.020;5.670;2022-08-04T00:40:58;8.63;;;2.50;;
69623;SDS011;56843;52.020;5.670;2022-08-04T00:42:44;7.13;;;2.40;;
69623;SDS011;56843;52.020;5.670;2022-08-04T00:46:25;5.88;;;2.50;;
69623;SDS011;56843;52.020;5.670;2022-08-04T01:03:42;10.07;;;2.22;;
69623;SDS011;56843;52.020;5.670;2022-08-04T01:05:30;8.07;;;2.33;;
69623;SDS011;56843;52.020;5.670;2022-08-04T01:09:30;7.22;;;2.58;;
69623;SDS011;56843;52.020;5.670;2022-08-04T01:17:16;13.38;;;2.35;;
69623;SDS011;56843;52.020;5.670;2022-08-04T01:20:26;8.18;;;2.60;;
69623;SDS011;56843;52.020;5.670;2022-08-04T01:30:03;8.97;;;3.10;;
69623;SDS011;56843;52.020;5.670;2022-08-04T01:31:38;7.30;;;2.67;;
69623;SDS011;56843;52.020;5.670;2022-08-04T01:33:17;13.20;;;2.50;;
69623;SDS011;56843;52.020;5.670;2022-08-04T01:35:13;7.20;;;2.50;;
69623;SDS011;56843;52.020;5.670;2022-08-04T01:36:44;9.23;;;2.45;;
69623;SDS011;56843;52.020;5.670;2022-08-04T01:38:17;5.90;;;2.42;;
69623;SDS011;56843;52.020;5.670;2022-08-04T01:40:03;8.82;;;2.78;;
69623;SDS011;56843;52.020;5.670;2022-08-04T01:41:35;6.20;;;2.50;;
69623;SDS011;56843;52.020;5.670;2022-08-04T01:43:05;10.37;;;2.43;;
69623;SDS011;56843;52.020;5.670;2022-08-04T01:44:39;7.88;;;2.47;;
69623;SDS011;56843;52.020;5.670;2022-08-04T01:46:11;6.47;;;2.30;;
69623;SDS011;56843;52.020;5.670;2022-08-04T01:47:52;6.22;;;2.63;;
69623;SDS011;56843;52.020;5.670;2022-08-04T01:49:26;5.57;;;2.27;;
69623;SDS011;56843;52.020;5.670;2022-08-04T01:51:03;7.00;;;2.23;;
69623;SDS011;56843;52.020;5.670;2022-08-04T01:52:36;10.18;;;2.20;;
69623;SDS011;56843;52.020;5.670;2022-08-04T01:54:08;8.20;;;2.60;;
69623;SDS011;56843;52.020;5.670;2022-08-04T01:55:40;9.40;;;2.70;;
69623;SDS011;56843;52.020;5.670;2022-08-04T01:57:11;13.57;;;2.53;;
69623;SDS011;56843;52.020;5.670;2022-08-04T01:58:42;8.02;;;2.30;;
69623;SDS011;56843;52.020;5.670;2022-08-04T02:00:13;5.50;;;2.30;;
69623;SDS011;56843;52.020;5.670;2022-08-04T02:01:45;6.40;;;2.60;;
69623;SDS011;56843;52.020;5.670;2022-08-04T02:03:16;6.85;;;2.78;;
69623;SDS011;56843;52.020;5.670;2022-08-04T02:04:47;6.53;;;2.20;;
69623;SDS011;56843;52.020;5.670;2022-08-04T02:06:40;6.80;;;2.20;;
69623;SDS011;56843;52.020;5.670;2022-08-04T02:10:02;12.20;;;2.50;;
69623;SDS011;56843;52.020;5.670;2022-08-04T02:11:38;8.40;;;2.83;;
69623;SDS011;56843;52.020;5.670;2022-08-04T02:16:48;7.35;;;2.97;;
69623;SDS011;56843;52.020;5.670;2022-08-04T02:18:27;8.68;;;2.33;;
69623;SDS011;56843;52.020;5.670;2022-08-04T02:21:36;7.50;;;2.58;;
69623;SDS011;56843;52.020;5.670;2022-08-04T02:23:13;8.85;;;2.25;;
69623;SDS011;56843;52.020;5.670;2022-08-04T02:24:45;9.20;;;2.35;;
69623;SDS011;56843;52.020;5.670;2022-08-04T02:26:19;8.00;;;2.87;;
69623;SDS011;56843;52.020;5.670;2022-08-04T02:29:39;6.80;;;1.90;;
69623;SDS011;56843;52.020;5.670;2022-08-04T02:31:28;6.50;;;2.08;;
69623;SDS011;56843;52.020;5.670;2022-08-04T02:33:03;8.35;;;2.20;;
69623;SDS011;56843;52.020;5.670;2022-08-04T02:36:10;6.35;;;2.22;;
69623;SDS011;56843;52.020;5.670;2022-08-04T02:37:51;5.68;;;2.03;;
69623;SDS011;56843;52.020;5.670;2022-08-04T02:39:34;5.32;;;2.17;;
69623;SDS011;56843;52.020;5.670;2022-08-04T02:41:06;6.37;;;2.47;;
69623;SDS011;56843;52.020;5.670;2022-08-04T02:42:38;6.30;;;2.50;;
69623;SDS011;56843;52.020;5.670;2022-08-04T02:44:09;8.13;;;2.20;;
69623;SDS011;56843;52.020;5.670;2022-08-04T02:45:40;7.10;;;2.43;;
69623;SDS011;56843;52.020;5.670;2022-08-04T02:47:12;8.05;;;2.38;;
69623;SDS011;56843;52.020;5.670;2022-08-04T02:48:42;6.00;;;2.28;;
69623;SDS011;56843;52.020;5.670;2022-08-04T02:50:17;5.97;;;2.10;;
69623;SDS011;56843;52.020;5.670;2022-08-04T02:51:50;7.03;;;2.40;;
69623;SDS011;56843;52.020;5.670;2022-08-04T02:53:22;5.77;;;1.90;;
69623;SDS011;56843;52.020;5.670;2022-08-04T02:54:56;6.25;;;2.00;;
69623;SDS011;56843;52.020;5.670;2022-08-04T02:56:31;9.00;;;2.20;;
69623;SDS011;56843;52.020;5.670;2022-08-04T02:58:03;6.85;;;2.20;;
69623;SDS011;56843;52.020;5.670;2022-08-04T02:59:43;8.55;;;2.58;;
69623;SDS011;56843;52.020;5.670;2022-08-04T03:01:16;7.70;;;2.05;;
69623;SDS011;56843;52.020;5.670;2022-08-04T03:03:02;6.03;;;2.50;;
69623;SDS011;56843;52.020;5.670;2022-08-04T03:04:56;8.38;;;2.72;;
69623;SDS011;56843;52.020;5.670;2022-08-04T03:12:33;7.40;;;3.85;;
69623;SDS011;56843;52.020;5.670;2022-08-04T03:21:35;13.50;;;5.27;;
69623;SDS011;56843;52.020;5.670;2022-08-04T03:27:09;14.07;;;5.07;;
69623;SDS011;56843;52.020;5.670;2022-08-04T03:29:09;14.30;;;5.68;;
69623;SDS011;56843;52.020;5.670;2022-08-04T03:33:06;14.70;;;4.95;;
69623;SDS011;56843;52.020;5.670;2022-08-04T03:38:31;12.27;;;5.20;;
69623;SDS011;56843;52.020;5.670;2022-08-04T03:45:52;11.73;;;4.80;;
69623;SDS011;56843;52.020;5.670;2022-08-04T03:48:03;11.45;;;5.05;;
69623;SDS011;56843;52.020;5.670;2022-08-04T03:50:18;16.58;;;4.95;;
69623;SDS011;56843;52.020;5.670;2022-08-04T03:54:10;13.18;;;5.45;;
69623;SDS011;56843;52.020;5.670;2022-08-04T03:56:50;13.97;;;5.23;;
69623;SDS011;56843;52.020;5.670;2022-08-04T03:58:00;14.37;;;5.20;;
69623;SDS011;56843;52.020;5.670;2022-08-04T04:13:12;21.63;;;5.23;;
69623;SDS011;56843;52.020;5.670;2022-08-04T04:14:58;11.67;;;5.30;;
69623;SDS011;56843;52.020;5.670;2022-08-04T04:22:39;10.93;;;5.15;;
69623;SDS011;56843;52.020;5.670;2022-08-04T04:28:44;14.18;;;5.45;;
69623;SDS011;56843;52.020;5.670;2022-08-04T04:32:37;12.32;;;5.60;;
69623;SDS011;56843;52.020;5.670;2022-08-04T04:34:24;12.48;;;5.40;;
69623;SDS011;56843;52.020;5.670;2022-08-04T04:44:00;12.73;;;4.88;;
69623;SDS011;56843;52.020;5.670;2022-08-04T04:45:48;12.10;;;5.28;;
69623;SDS011;56843;52.020;5.670;2022-08-04T04:49:47;11.73;;;5.25;;
69623;SDS011;56843;52.020;5.670;2022-08-04T04:51:22;13.00;;;5.63;;
69623;SDS011;56843;52.020;5.670;2022-08-04T04:53:01;16.60;;;6.22;;
69623;SDS011;56843;52.020;5.670;2022-08-04T04:54:40;13.02;;;5.82;;
69623;SDS011;56843;52.020;5.670;2022-08-04T04:58:03;15.87;;;5.70;;
69623;SDS011;56843;52.020;5.670;2022-08-04T04:59:36;16.33;;;5.47;;
69623;SDS011;56843;52.020;5.670;2022-08-04T05:10:45;13.40;;;4.93;;
69623;SDS011;56843;52.020;5.670;2022-08-04T05:12:28;17.35;;;4.65;;
69623;SDS011;56843;52.020;5.670;2022-08-04T05:14:33;14.32;;;4.70;;
69623;SDS011;56843;52.020;5.670;2022-08-04T05:16:09;13.93;;;4.80;;
69623;SDS011;56843;52.020;5.670;2022-08-04T05:18:03;14.17;;;4.80;;
69623;SDS011;56843;52.020;5.670;2022-08-04T05:21:32;10.05;;;4.38;;
69623;SDS011;56843;52.020;5.670;2022-08-04T05:23:12;12.73;;;4.55;;
69623;SDS011;56843;52.020;5.670;2022-08-04T05:24:47;16.92;;;5.72;;
69623;SDS011;56843;52.020;5.670;2022-08-04T05:26:25;9.40;;;3.97;;
69623;SDS011;56843;52.020;5.670;2022-08-04T05:29:53;12.70;;;3.97;;
69623;SDS011;56843;52.020;5.670;2022-08-04T05:31:31;11.80;;;4.00;;
69623;SDS011;56843;52.020;5.670;2022-08-04T05:33:09;10.20;;;4.00;;
69623;SDS011;56843;52.020;5.670;2022-08-04T05:34:43;9.70;;;4.43;;
69623;SDS011;56843;52.020;5.670;2022-08-04T05:36:18;8.68;;;4.03;;
69623;SDS011;56843;52.020;5.670;2022-08-04T05:37:51;17.42;;;3.67;;
69623;SDS011;56843;52.020;5.670;2022-08-04T05:39:24;14.05;;;4.32;;
69623;SDS011;56843;52.020;5.670;2022-08-04T05:40:57;9.68;;;3.72;;
69623;SDS011;56843;52.020;5.670;2022-08-04T05:42:28;10.38;;;4.38;;
69623;SDS011;56843;52.020;5.670;2022-08-04T05:44:01;10.40;;;3.83;;
69623;SDS011;56843;52.020;5.670;2022-08-04T05:45:33;11.40;;;4.13;;
69623;SDS011;56843;52.020;5.670;2022-08-04T05:47:04;10.82;;;4.18;;
69623;SDS011;56843;52.020;5.670;2022-08-04T05:48:36;8.63;;;3.60;;
69623;SDS011;56843;52.020;5.670;2022-08-04T05:50:09;9.97;;;4.07;;
69623;SDS011;56843;52.020;5.670;2022-08-04T05:51:39;9.88;;;3.47;;
69623;SDS011;56843;52.020;5.670;2022-08-04T05:53:12;15.55;;;5.00;;
69623;SDS011;56843;52.020;5.670;2022-08-04T05:54:44;9.10;;;3.72;;
69623;SDS011;56843;52.020;5.670;2022-08-04T05:56:15;9.35;;;3.55;;
69623;SDS011;56843;52.020;5.670;2022-08-04T05:57:46;10.17;;;3.90;;
69623;SDS011;56843;52.020;5.670;2022-08-04T05:59:18;10.37;;;3.83;;
69623;SDS011;56843;52.020;5.670;2022-08-04T06:00:50;8.70;;;4.55;;
69623;SDS011;56843;52.020;5.670;2022-08-04T06:02:23;13.13;;;3.80;;
69623;SDS011;56843;52.020;5.670;2022-08-04T06:03:59;8.85;;;3.42;;
69623;SDS011;56843;52.020;5.670;2022-08-04T06:05:30;11.23;;;3.58;;
69623;SDS011;56843;52.020;5.670;2022-08-04T06:07:02;13.65;;;4.22;;
69623;SDS011;56843;52.020;5.670;2022-08-04T06:08:32;14.27;;;3.47;;
69623;SDS011;56843;52.020;5.670;2022-08-04T06:10:03;10.37;;;3.30;;
69623;SDS011;56843;52.020;5.670;2022-08-04T06:11:35;8.90;;;3.22;;
69623;SDS011;56843;52.020;5.670;2022-08-04T06:13:10;17.45;;;4.28;;
69623;SDS011;56843;52.020;5.670;2022-08-04T06:14:43;13.00;;;3.92;;
69623;SDS011;56843;52.020;5.670;2022-08-04T06:16:20;8.82;;;3.63;;
69623;SDS011;56843;52.020;5.670;2022-08-04T06:18:00;10.63;;;3.67;;
69623;SDS011;56843;52.020;5.670;2022-08-04T06:19:32;9.77;;;3.37;;
69623;SDS011;56843;52.020;5.670;2022-08-04T06:21:06;7.38;;;3.40;;
69623;SDS011;56843;52.020;5.670;2022-08-04T06:22:41;12.70;;;3.90;;
69623;SDS011;56843;52.020;5.670;2022-08-04T06:24:15;10.80;;;4.13;;
69623;SDS011;56843;52.020;5.670;2022-08-04T06:25:50;8.95;;;3.50;;
69623;SDS011;56843;52.020;5.670;2022-08-04T06:27:24;13.10;;;3.40;;
69623;SDS011;56843;52.020;5.670;2022-08-04T06:28:55;9.57;;;3.95;;
69623;SDS011;56843;52.020;5.670;2022-08-04T06:30:26;10.20;;;3.50;;
69623;SDS011;56843;52.020;5.670;2022-08-04T06:31:59;10.90;;;4.10;;
69623;SDS011;56843;52.020;5.670;2022-08-04T06:33:31;12.52;;;4.25;;
69623;SDS011;56843;52.020;5.670;2022-08-04T06:35:04;9.55;;;3.30;;
69623;SDS011;56843;52.020;5.670;2022-08-04T06:36:36;10.90;;;3.85;;
69623;SDS011;56843;52.020;5.670;2022-08-04T06:38:10;7.85;;;3.42;;
69623;SDS011;56843;52.020;5.670;2022-08-04T06:39:40;9.67;;;3.43;;
69623;SDS011;56843;52.020;5.670;2022-08-04T06:41:11;8.30;;;3.70;;
69623;SDS011;56843;52.020;5.670;2022-08-04T06:42:42;10.37;;;3.30;;
69623;SDS011;56843;52.020;5.670;2022-08-04T06:44:13;9.10;;;3.30;;
69623;SDS011;56843;52.020;5.670;2022-08-04T06:45:44;8.65;;;3.53;;
69623;SDS011;56843;52.020;5.670;2022-08-04T06:47:16;9.48;;;3.90;;
69623;SDS011;56843;52.020;5.670;2022-08-04T06:48:50;16.70;;;4.45;;
69623;SDS011;56843;52.020;5.670;2022-08-04T06:50:22;8.32;;;3.70;;
69623;SDS011;56843;52.020;5.670;2022-08-04T06:51:53;14.25;;;3.88;;
69623;SDS011;56843;52.020;5.670;2022-08-04T06:53:27;9.20;;;3.50;;
69623;SDS011;56843;52.020;5.670;2022-08-04T06:54:58;10.03;;;3.50;;
69623;SDS011;56843;52.020;5.670;2022-08-04T06:56:29;10.13;;;3.50;;
69623;SDS011;56843;52.020;5.670;2022-08-04T06:58:02;11.07;;;3.60;;
69623;SDS011;56843;52.020;5.670;2022-08-04T06:59:34;11.33;;;3.30;;
69623;SDS011;56843;52.020;5.670;2022-08-04T07:01:04;8.73;;;3.53;;
69623;SDS011;56843;52.020;5.670;2022-08-04T07:02:41;8.75;;;3.75;;
69623;SDS011;56843;52.020;5.670;2022-08-04T07:04:17;13.15;;;3.90;;
69623;SDS011;56843;52.020;5.670;2022-08-04T07:05:48;14.25;;;3.85;;
69623;SDS011;56843;52.020;5.670;2022-08-04T07:07:22;14.23;;;3.83;;
69623;SDS011;56843;52.020;5.670;2022-08-04T07:08:53;9.60;;;3.60;;
69623;SDS011;56843;52.020;5.670;2022-08-04T07:10:28;10.98;;;4.35;;
69623;SDS011;56843;52.020;5.670;2022-08-04T07:11:59;13.25;;;4.38;;
69623;SDS011;56843;52.020;5.670;2022-08-04T07:13:30;17.80;;;5.75;;
69623;SDS011;56843;52.020;5.670;2022-08-04T07:15:02;14.63;;;5.25;;
69623;SDS011;56843;52.020;5.670;2022-08-04T07:16:33;14.82;;;6.05;;
69623;SDS011;56843;52.020;5.670;2022-08-04T07:18:05;14.97;;;5.70;;
69623;SDS011;56843;52.020;5.670;2022-08-04T07:19:35;16.37;;;6.47;;
69623;SDS011;56843;52.020;5.670;2022-08-04T07:21:06;17.77;;;5.97;;
69623;SDS011;56843;52.020;5.670;2022-08-04T07:22:37;23.40;;;5.43;;
69623;SDS011;56843;52.020;5.670;2022-08-04T07:24:11;12.57;;;5.55;;
69623;SDS011;56843;52.020;5.670;2022-08-04T07:25:42;15.48;;;6.15;;
69623;SDS011;56843;52.020;5.670;2022-08-04T07:27:13;13.32;;;5.18;;
69623;SDS011;56843;52.020;5.670;2022-08-04T07:28:46;16.23;;;5.37;;
69623;SDS011;56843;52.020;5.670;2022-08-04T07:30:16;15.20;;;5.40;;
69623;SDS011;56843;52.020;5.670;2022-08-04T07:31:48;12.90;;;4.78;;
69623;SDS011;56843;52.020;5.670;2022-08-04T07:33:19;13.30;;;5.55;;
69623;SDS011;56843;52.020;5.670;2022-08-04T07:34:50;12.50;;;5.00;;
69623;SDS011;56843;52.020;5.670;2022-08-04T07:36:22;11.25;;;4.75;;
69623;SDS011;56843;52.020;5.670;2022-08-04T07:37:52;12.00;;;4.80;;
69623;SDS011;56843;52.020;5.670;2022-08-04T07:39:23;11.17;;;4.03;;
69623;SDS011;56843;52.020;5.670;2022-08-04T07:40:55;17.73;;;4.60;;
69623;SDS011;56843;52.020;5.670;2022-08-04T07:42:26;14.15;;;5.00;;
69623;SDS011;56843;52.020;5.670;2022-08-04T07:43:57;14.07;;;4.50;;
69623;SDS011;56843;52.020;5.670;2022-08-04T07:45:28;15.40;;;5.07;;
69623;SDS011;56843;52.020;5.670;2022-08-04T07:47:00;12.15;;;4.78;;
69623;SDS011;56843;52.020;5.670;2022-08-04T07:48:31;12.30;;;5.40;;
69623;SDS011;56843;52.020;5.670;2022-08-04T07:50:02;16.97;;;4.83;;
69623;SDS011;56843;52.020;5.670;2022-08-04T07:51:33;15.13;;;4.50;;
69623;SDS011;56843;52.020;5.670;2022-08-04T07:53:05;11.82;;;4.90;;
69623;SDS011;56843;52.020;5.670;2022-08-04T07:54:36;13.57;;;4.60;;
69623;SDS011;56843;52.020;5.670;2022-08-04T07:56:08;12.37;;;4.90;;
69623;SDS011;56843;52.020;5.670;2022-08-04T07:57:40;12.27;;;5.07;;
69623;SDS011;56843;52.020;5.670;2022-08-04T07:59:10;19.55;;;4.70;;
69623;SDS011;56843;52.020;5.670;2022-08-04T08:00:42;16.20;;;4.70;;
69623;SDS011;56843;52.020;5.670;2022-08-04T08:02:15;18.15;;;4.97;;
69623;SDS011;56843;52.020;5.670;2022-08-04T08:03:49;17.45;;;4.95;;
69623;SDS011;56843;52.020;5.670;2022-08-04T08:05:21;15.82;;;5.32;;
69623;SDS011;56843;52.020;5.670;2022-08-04T08:06:52;16.40;;;4.88;;
69623;SDS011;56843;52.020;5.670;2022-08-04T08:08:23;9.87;;;3.60;;
69623;SDS011;56843;52.020;5.670;2022-08-04T08:09:54;19.17;;;5.07;;
69623;SDS011;56843;52.020;5.670;2022-08-04T08:11:24;14.03;;;4.90;;
69623;SDS011;56843;52.020;5.670;2022-08-04T08:12:55;18.27;;;5.03;;
69623;SDS011;56843;52.020;5.670;2022-08-04T08:14:26;16.13;;;4.72;;
69623;SDS011;56843;52.020;5.670;2022-08-04T08:16:00;7.25;;;3.00;;
69623;SDS011;56843;52.020;5.670;2022-08-04T08:17:32;12.27;;;4.07;;
69623;SDS011;56843;52.020;5.670;2022-08-04T08:19:03;13.80;;;4.32;;
69623;SDS011;56843;52.020;5.670;2022-08-04T08:20:35;15.27;;;4.50;;
69623;SDS011;56843;52.020;5.670;2022-08-04T08:22:05;16.13;;;5.35;;
69623;SDS011;56843;52.020;5.670;2022-08-04T08:23:38;10.95;;;4.63;;
69623;SDS011;56843;52.020;5.670;2022-08-04T08:25:10;9.77;;;4.20;;
69623;SDS011;56843;52.020;5.670;2022-08-04T08:26:41;9.75;;;4.20;;
69623;SDS011;56843;52.020;5.670;2022-08-04T08:28:12;21.90;;;5.20;;
69623;SDS011;56843;52.020;5.670;2022-08-04T08:29:43;14.20;;;4.38;;
69623;SDS011;56843;52.020;5.670;2022-08-04T08:31:14;20.95;;;4.78;;
69623;SDS011;56843;52.020;5.670;2022-08-04T08:32:45;20.30;;;5.03;;
69623;SDS011;56843;52.020;5.670;2022-08-04T08:34:16;22.05;;;4.80;;
69623;SDS011;56843;52.020;5.670;2022-08-04T08:36:03;15.27;;;4.18;;
69623;SDS011;56843;52.020;5.670;2022-08-04T08:37:46;10.30;;;3.37;;
69623;SDS011;56843;52.020;5.670;2022-08-04T09:00:39;6.35;;;2.33;;
69623;SDS011;56843;52.020;5.670;2022-08-04T09:07:40;11.30;;;1.88;;
69623;SDS011;56843;52.020;5.670;2022-08-04T09:11:17;8.37;;;2.13;;
69623;SDS011;56843;52.020;5.670;2022-08-04T09:13:04;11.95;;;2.20;;
69623;SDS011;56843;52.020;5.670;2022-08-04T09:14:59;11.30;;;2.17;;
69623;SDS011;56843;52.020;5.670;2022-08-04T09:17:02;9.43;;;2.03;;
69623;SDS011;56843;52.020;5.670;2022-08-04T09:18:36;7.05;;;1.70;;
69623;SDS011;56843;52.020;5.670;2022-08-04T09:22:10;9.10;;;1.83;;
69623;SDS011;56843;52.020;5.670;2022-08-04T09:24:09;9.93;;;2.15;;
69623;SDS011;56843;52.020;5.670;2022-08-04T09:26:24;8.35;;;2.15;;
69623;SDS011;56843;52.020;5.670;2022-08-04T09:27:58;11.40;;;1.88;;
69623;SDS011;56843;52.020;5.670;2022-08-04T09:31:29;7.72;;;2.20;;
69623;SDS011;56843;52.020;5.670;2022-08-04T09:35:15;8.10;;;1.92;;
69623;SDS011;56843;52.020;5.670;2022-08-04T09:37:13;8.40;;;2.42;;
69623;SDS011;56843;52.020;5.670;2022-08-04T09:38:48;7.93;;;1.85;;
69623;SDS011;56843;52.020;5.670;2022-08-04T09:42:19;6.85;;;2.13;;
69623;SDS011;56843;52.020;5.670;2022-08-04T09:44:05;11.97;;;2.13;;
69623;SDS011;56843;52.020;5.670;2022-08-04T09:47:46;9.52;;;2.40;;
69623;SDS011;56843;52.020;5.670;2022-08-04T09:50:59;10.48;;;1.88;;
69623;SDS011;56843;52.020;5.670;2022-08-04T09:52:43;9.17;;;2.53;;
69623;SDS011;56843;52.020;5.670;2022-08-04T09:56:27;8.73;;;1.90;;
69623;SDS011;56843;52.020;5.670;2022-08-04T09:58:10;6.15;;;1.70;;
69623;SDS011;56843;52.020;5.670;2022-08-04T10:01:45;9.38;;;2.13;;
69623;SDS011;56843;52.020;5.670;2022-08-04T10:03:22;11.93;;;2.33;;
69623;SDS011;56843;52.020;5.670;2022-08-04T10:04:55;9.95;;;2.13;;
69623;SDS011;56843;52.020;5.670;2022-08-04T10:08:28;10.93;;;2.17;;
69623;SDS011;56843;52.020;5.670;2022-08-04T10:10:18;10.25;;;2.30;;
69623;SDS011;56843;52.020;5.670;2022-08-04T10:12:02;8.93;;;2.30;;
69623;SDS011;56843;52.020;5.670;2022-08-04T10:17:44;6.20;;;2.30;;
69623;SDS011;56843;52.020;5.670;2022-08-04T10:19:37;9.77;;;2.47;;
69623;SDS011;56843;52.020;5.670;2022-08-04T10:23:00;10.77;;;2.27;;
69623;SDS011;56843;52.020;5.670;2022-08-04T10:25:02;7.90;;;2.40;;
69623;SDS011;56843;52.020;5.670;2022-08-04T10:26:49;13.93;;;2.63;;
69623;SDS011;56843;52.020;5.670;2022-08-04T10:28:23;11.20;;;2.53;;
69623;SDS011;56843;52.020;5.670;2022-08-04T10:30:06;16.50;;;2.47;;
69623;SDS011;56843;52.020;5.670;2022-08-04T10:31:43;12.98;;;2.47;;
69623;SDS011;56843;52.020;5.670;2022-08-04T10:33:27;9.13;;;2.10;;
69623;SDS011;56843;52.020;5.670;2022-08-04T10:36:52;8.00;;;2.30;;
69623;SDS011;56843;52.020;5.670;2022-08-04T10:38:32;14.13;;;2.45;;
69623;SDS011;56843;52.020;5.670;2022-08-04T10:40:07;10.80;;;2.50;;
69623;SDS011;56843;52.020;5.670;2022-08-04T10:42:03;8.70;;;2.50;;
69623;SDS011;56843;52.020;5.670;2022-08-04T10:43:48;8.15;;;2.65;;
69623;SDS011;56843;52.020;5.670;2022-08-04T10:45:32;7.82;;;2.45;;
69623;SDS011;56843;52.020;5.670;2022-08-04T10:47:08;7.57;;;2.30;;
69623;SDS011;56843;52.020;5.670;2022-08-04T10:50:40;7.25;;;2.33;;
69623;SDS011;56843;52.020;5.670;2022-08-04T10:53:57;6.38;;;2.20;;
69623;SDS011;56843;52.020;5.670;2022-08-04T10:55:35;5.40;;;1.90;;
69623;SDS011;56843;52.020;5.670;2022-08-04T10:57:12;7.07;;;2.40;;
69623;SDS011;56843;52.020;5.670;2022-08-04T10:58:49;6.37;;;1.90;;
69623;SDS011;56843;52.020;5.670;2022-08-04T11:00:24;7.85;;;2.00;;
69623;SDS011;56843;52.020;5.670;2022-08-04T11:01:58;5.72;;;2.13;;
69623;SDS011;56843;52.020;5.670;2022-08-04T11:03:56;7.68;;;2.20;;
69623;SDS011;56843;52.020;5.670;2022-08-04T11:06:05;6.38;;;2.13;;
69623;SDS011;56843;52.020;5.670;2022-08-04T11:07:32;5.82;;;1.83;;
69623;SDS011;56843;52.020;5.670;2022-08-04T11:09:07;6.63;;;2.03;;
69623;SDS011;56843;52.020;5.670;2022-08-04T11:10:46;8.97;;;2.00;;
69623;SDS011;56843;52.020;5.670;2022-08-04T11:12:24;6.93;;;2.20;;
69623;SDS011;56843;52.020;5.670;2022-08-04T11:14:03;11.20;;;2.00;;
69623;SDS011;56843;52.020;5.670;2022-08-04T11:15:37;8.65;;;2.13;;
69623;SDS011;56843;52.020;5.670;2022-08-04T11:17:15;9.32;;;2.33;;
69623;SDS011;56843;52.020;5.670;2022-08-04T11:20:55;10.63;;;2.70;;
69623;SDS011;56843;52.020;5.670;2022-08-04T11:23:13;8.60;;;2.60;;
69623;SDS011;56843;52.020;5.670;2022-08-04T11:24:51;10.27;;;3.03;;
69623;SDS011;56843;52.020;5.670;2022-08-04T11:30:07;9.35;;;3.13;;
69623;SDS011;56843;52.020;5.670;2022-08-04T11:31:39;8.27;;;2.92;;
69623;SDS011;56843;52.020;5.670;2022-08-04T11:33:19;13.25;;;3.13;;
69623;SDS011;56843;52.020;5.670;2022-08-04T11:34:56;12.18;;;3.20;;
69623;SDS011;56843;52.020;5.670;2022-08-04T11:42:27;7.38;;;2.50;;
69623;SDS011;56843;52.020;5.670;2022-08-04T11:44:00;5.68;;;2.35;;
69623;SDS011;56843;52.020;5.670;2022-08-04T11:45:35;10.80;;;3.22;;
69623;SDS011;56843;52.020;5.670;2022-08-04T11:47:18;8.90;;;3.40;;
69623;SDS011;56843;52.020;5.670;2022-08-04T11:50:34;12.40;;;3.30;;
69623;SDS011;56843;52.020;5.670;2022-08-04T11:52:07;6.63;;;2.53;;
69623;SDS011;56843;52.020;5.670;2022-08-04T11:53:41;12.27;;;2.67;;
69623;SDS011;56843;52.020;5.670;2022-08-04T11:55:14;8.53;;;2.77;;
69623;SDS011;56843;52.020;5.670;2022-08-04T11:56:46;8.75;;;2.45;;
69623;SDS011;56843;52.020;5.670;2022-08-04T11:58:20;11.50;;;3.05;;
69623;SDS011;56843;52.020;5.670;2022-08-04T11:59:54;10.65;;;2.90;;
69623;SDS011;56843;52.020;5.670;2022-08-04T12:01:34;9.52;;;3.08;;
69623;SDS011;56843;52.020;5.670;2022-08-04T12:03:30;13.50;;;2.78;;
69623;SDS011;56843;52.020;5.670;2022-08-04T12:05:34;7.90;;;2.47;;
69623;SDS011;56843;52.020;5.670;2022-08-04T12:15:22;6.38;;;2.10;;
69623;SDS011;56843;52.020;5.670;2022-08-04T12:17:20;5.03;;;1.92;;
69623;SDS011;56843;52.020;5.670;2022-08-04T12:18:56;5.72;;;1.90;;
69623;SDS011;56843;52.020;5.670;2022-08-04T12:22:36;7.43;;;2.08;;
69623;SDS011;56843;52.020;5.670;2022-08-04T12:24:30;7.35;;;1.90;;
69623;SDS011;56843;52.020;5.670;2022-08-04T12:26:16;8.45;;;2.20;;
69623;SDS011;56843;52.020;5.670;2022-08-04T12:28:04;4.97;;;2.13;;
69623;SDS011;56843;52.020;5.670;2022-08-04T12:29:58;8.07;;;2.03;;
69623;SDS011;56843;52.020;5.670;2022-08-04T12:32:03;5.60;;;2.00;;
69623;SDS011;56843;52.020;5.670;2022-08-04T12:34:36;6.82;;;2.30;;
69623;SDS011;56843;52.020;5.670;2022-08-04T12:39:52;7.47;;;2.33;;
69623;SDS011;56843;52.020;5.670;2022-08-04T12:45:41;6.28;;;2.33;;
69623;SDS011;56843;52.020;5.670;2022-08-04T12:56:58;5.53;;;2.00;;
69623;SDS011;56843;52.020;5.670;2022-08-04T13:23:17;9.05;;;2.28;;
69623;SDS011;56843;52.020;5.670;2022-08-04T13:26:07;5.63;;;2.25;;
69623;SDS011;56843;52.020;5.670;2022-08-04T13:50:33;5.18;;;1.90;;
69623;SDS011;56843;52.020;5.670;2022-08-04T14:08:25;7.32;;;1.70;;
69623;SDS011;56843;52.020;5.670;2022-08-04T14:14:43;5.70;;;1.73;;
69623;SDS011;56843;52.020;5.670;2022-08-04T14:36:01;7.57;;;2.50;;
69623;SDS011;56843;52.020;5.670;2022-08-04T14:43:18;7.07;;;1.90;;
69623;SDS011;56843;52.020;5.670;2022-08-04T14:46:48;5.90;;;2.00;;
69623;SDS011;56843;52.020;5.670;2022-08-04T14:48:20;7.30;;;2.75;;
69623;SDS011;56843;52.020;5.670;2022-08-04T14:49:52;6.07;;;2.00;;
69623;SDS011;56843;52.020;5.670;2022-08-04T14:51:25;9.47;;;2.40;;
69623;SDS011;56843;52.020;5.670;2022-08-04T14:53:03;7.93;;;1.70;;
69623;SDS011;56843;52.020;5.670;2022-08-04T14:54:37;7.07;;;2.30;;
69623;SDS011;56843;52.020;5.670;2022-08-04T14:56:07;5.17;;;2.10;;
69623;SDS011;56843;52.020;5.670;2022-08-04T14:57:38;6.95;;;2.00;;
69623;SDS011;56843;52.020;5.670;2022-08-04T14:59:09;9.50;;;2.00;;
69623;SDS011;56843;52.020;5.670;2022-08-04T15:00:40;4.50;;;1.77;;
69623;SDS011;56843;52.020;5.670;2022-08-04T15:02:12;5.33;;;2.00;;
69623;SDS011;56843;52.020;5.670;2022-08-04T15:03:43;8.52;;;1.95;;
69623;SDS011;56843;52.020;5.670;2022-08-04T15:05:14;7.00;;;2.30;;
69623;SDS011;56843;52.020;5.670;2022-08-04T15:06:45;5.43;;;2.00;;